Time;durP1;ratioP1;P1;durP2;ratioP2;P2;SDS_P1;SDS_P2;PMS_P1;PMS_P2;Temp;Humidity;BMP_temperature;BMP_pressure;BME280_temperature;BME280_humidity;BME280_pressure;Samples;Min_cycle;Max_cycle;Signal;HPM_P1;HPM_P2
2023/03/26 00:04:45;;;;;;;2.00;0.68;;;;;;;17.49;56.92;100218.78;20580686;28;20504;-82
2023/03/26 00:14:47;;;;;;;1.85;0.80;;;;;;;17.37;56.71;100207.38;20595489;28;20051;-81
2023/03/26 00:24:50;;;;;;;2.00;0.80;;;;;;;17.47;57.04;100243.16;20595940;28;20078;-82
2023/03/26 00:34:53;;;;;;;1.92;0.90;;;;;;;17.48;56.67;100246.72;20594160;28;20054;-82
2023/03/26 00:44:56;;;;;;;2.00;0.80;;;;;;;17.46;56.54;100241.47;20577329;28;20073;-82
2023/03/26 00:54:58;;;;;;;1.58;0.73;;;;;;;17.45;56.28;100233.53;20589890;28;20126;-82
2023/03/26 01:05:02;;;;;;;1.65;0.95;;;;;;;17.47;56.28;100248.53;20590918;28;20448;-82
2023/03/26 01:15:07;;;;;;;2.33;0.73;;;;;;;17.33;56.19;100216.75;20543271;28;20130;-82
2023/03/26 01:25:08;;;;;;;1.60;0.60;;;;;;;17.38;56.09;100214.47;20568162;28;20054;-82
2023/03/26 01:35:20;;;;;;;2.63;0.90;;;;;;;17.44;56.03;100221.94;20571413;28;20499;-81
2023/03/26 01:45:27;;;;;;;3.55;0.88;;;;;;;17.45;55.91;100218.22;20590261;28;20122;-81
2023/03/26 01:56:02;;;;;;;2.35;0.90;;;;;;;17.44;55.69;100219.22;20569808;28;20070;-81
2023/03/26 02:06:06;;;;;;;2.33;0.60;;;;;;;17.38;55.64;100206.38;20584093;28;20058;-81
2023/03/26 02:16:12;;;;;;;2.15;0.73;;;;;;;17.33;55.52;100179.09;20570679;28;20507;-81
2023/03/26 02:26:17;;;;;;;2.00;0.70;;;;;;;17.43;55.45;100192.47;20581557;28;20045;-81
2023/03/26 02:36:41;;;;;;;1.88;0.63;;;;;;;17.43;55.14;100181.69;20553144;28;20066;-82
2023/03/26 02:46:44;;;;;;;1.67;0.70;;;;;;;17.42;55.17;100178.19;20553301;28;20647;-82
2023/03/26 02:57:05;;;;;;;1.40;0.63;;;;;;;17.42;54.94;100170.09;20541999;28;20097;-82
2023/03/26 03:07:27;;;;;;;1.33;0.75;;;;;;;17.10;54.89;100117.63;20576062;28;20047;-82
2023/03/26 03:17:31;;;;;;;1.70;0.70;;;;;;;17.41;54.57;100152.25;20559773;28;20554;-81
2023/03/26 03:27:32;;;;;;;1.52;0.77;;;;;;;17.41;54.81;100149.56;20561665;28;20059;-81
2023/03/26 03:37:42;;;;;;;2.45;0.60;;;;;;;17.40;54.54;100131.75;20554920;28;20043;-81
2023/03/26 03:47:44;;;;;;;1.67;0.52;;;;;;;17.36;54.63;100122.28;20566406;28;20074;-81
2023/03/26 03:57:48;;;;;;;1.33;0.70;;;;;;;17.39;54.40;100117.44;20535522;28;20054;-82
2023/03/26 04:07:53;;;;;;;2.55;0.60;;;;;;;17.32;54.34;100105.59;20573089;28;20054;-81
2023/03/26 04:18:01;;;;;;;1.70;0.65;;;;;;;17.39;54.28;100121.97;20593025;28;20142;-82
2023/03/26 04:28:06;;;;;;;1.45;0.88;;;;;;;17.34;54.12;100122.41;20589518;28;20129;-82
2023/03/26 04:38:34;;;;;;;1.52;0.50;;;;;;;17.37;53.88;100122.13;20577973;28;20047;-82
2023/03/26 04:48:37;;;;;;;0.93;0.50;;;;;;;17.37;53.89;100123.97;20557137;28;20573;-82
2023/03/26 04:58:41;;;;;;;2.42;0.77;;;;;;;17.37;53.73;100121.28;20588725;28;20396;-82
2023/03/26 05:08:43;;;;;;;1.70;0.60;;;;;;;17.37;53.82;100129.34;20562220;28;20062;-82
2023/03/26 05:18:54;;;;;;;1.15;0.50;;;;;;;17.32;53.77;100112.81;20570243;28;20447;-82
2023/03/26 05:28:58;;;;;;;1.33;0.50;;;;;;;17.36;53.78;100111.53;20584901;28;20055;-82
2023/03/26 05:39:06;;;;;;;0.65;0.60;;;;;;;17.34;53.85;100108.97;20568582;28;20127;-82
2023/03/26 05:49:26;;;;;;;1.95;0.77;;;;;;;17.30;53.72;100093.31;20555427;28;20050;-82
2023/03/26 05:59:28;;;;;;;1.55;0.70;;;;;;;17.01;53.84;100048.59;20584225;28;20051;-82
2023/03/26 06:09:48;;;;;;;1.23;0.50;;;;;;;17.34;53.60;100102.75;20579791;28;20050;-82
2023/03/26 06:19:51;;;;;;;0.68;0.40;;;;;;;17.34;53.71;100092.00;20551164;28;20051;-82
2023/03/26 06:30:04;;;;;;;0.98;0.43;;;;;;;17.32;53.88;100084.06;20544565;28;20058;-83
2023/03/26 06:40:12;;;;;;;1.23;0.55;;;;;;;17.35;53.84;100082.94;20537027;28;20035;-83
2023/03/26 06:50:39;;;;;;;1.60;0.50;;;;;;;17.33;53.83;100084.94;20551217;28;20101;-84
2023/03/26 07:00:46;;;;;;;1.48;0.50;;;;;;;17.35;53.95;100077.53;20559170;28;20495;-83
2023/03/26 07:11:06;;;;;;;0.90;0.70;;;;;;;17.36;53.92;100065.78;20573121;28;20133;-83
2023/03/26 07:21:26;;;;;;;1.58;0.50;;;;;;;17.33;54.02;100050.78;20538894;28;20055;-83
2023/03/26 07:31:55;;;;;;;1.42;1.02;;;;;;;17.37;53.84;100043.25;20553164;28;20042;-83
2023/03/26 07:42:32;;;;;;;1.63;0.75;;;;;;;17.37;53.52;100051.34;20557804;28;20050;-87
2023/03/26 07:52:52;;;;;;;1.65;0.70;;;;;;;17.35;53.36;100037.19;20595542;28;20039;-87
2023/03/26 08:03:13;;;;;;;1.98;0.88;;;;;;;17.37;53.13;100054.03;20573841;28;20423;-86
2023/03/26 08:13:39;;;;;;;2.30;0.73;;;;;;;17.38;52.98;100053.03;20551419;28;20066;-87
2023/03/26 08:24:03;;;;;;;2.03;0.90;;;;;;;17.05;52.80;100006.97;20555836;28;20583;-86
2023/03/26 08:34:07;;;;;;;3.15;0.95;;;;;;;17.38;52.21;100061.09;20541471;28;20046;-82
2023/03/26 08:44:47;;;;;;;2.75;1.00;;;;;;;17.37;52.04;100062.94;20576653;28;20049;-83
2023/03/26 08:55:26;;;;;;;3.15;1.20;;;;;;;17.38;51.85;100061.09;20593544;28;20125;-91
2023/03/26 09:06:02;;;;;;;3.72;1.30;;;;;;;17.38;52.01;100061.94;20565251;28;20047;-86
2023/03/26 09:16:26;;;;;;;3.80;0.90;;;;;;;17.39;52.04;100063.63;20574502;28;20125;-91
2023/03/26 09:26:40;;;;;;;3.17;1.05;;;;;;;17.39;52.11;100063.63;20539979;28;20085;-89
2023/03/26 09:36:56;;;;;;;2.80;1.13;;;;;;;17.30;52.05;100045.72;20551792;28;20053;-91
2023/03/26 09:47:21;;;;;;;3.28;1.40;;;;;;;17.41;52.10;100071.53;20571044;28;20055;-89
2023/03/26 09:57:56;;;;;;;3.23;1.37;;;;;;;17.42;51.95;100075.94;20505472;28;20042;-83
2023/03/26 10:07:59;;;;;;;4.70;1.50;;;;;;;17.41;51.98;100074.25;20539132;28;20039;-90
2023/03/26 10:18:06;;;;;;;2.95;1.15;;;;;;;17.42;51.90;100081.31;20573161;28;20054;-84
2023/03/26 10:28:40;;;;;;;4.47;1.48;;;;;;;17.41;51.86;100074.25;20586946;28;20479;-84
2023/03/26 10:38:56;;;;;;;3.90;1.35;;;;;;;17.40;51.67;100092.22;20585973;28;20451;-84
2023/03/26 10:49:13;;;;;;;2.53;0.98;;;;;;;17.40;51.73;100086.00;20583621;28;20049;-84
2023/03/26 10:59:16;;;;;;;3.47;1.20;;;;;;;17.41;51.62;100087.69;20584940;28;20125;-84
2023/03/26 11:09:32;;;;;;;3.05;1.50;;;;;;;17.40;51.47;100086.00;20580965;28;20419;-84
2023/03/26 11:19:37;;;;;;;3.90;1.10;;;;;;;17.42;51.27;100100.16;20566636;28;20039;-84
2023/03/26 11:29:57;;;;;;;4.00;1.03;;;;;;;17.42;51.44;100105.53;20583408;28;20050;-84
2023/03/26 11:40:05;;;;;;;4.90;1.10;;;;;;;17.40;51.09;100113.75;20583565;28;20495;-84
2023/03/26 11:50:13;;;;;;;3.78;1.33;;;;;;;17.34;51.10;100110.84;20566337;28;20534;-84
2023/03/26 12:00:18;;;;;;;2.63;0.90;;;;;;;17.39;50.83;100112.03;20565023;28;20047;-84
2023/03/26 12:10:22;;;;;;;2.80;1.10;;;;;;;17.34;50.73;100103.59;20580239;28;20078;-84
2023/03/26 12:20:31;;;;;;;3.10;1.08;;;;;;;17.40;50.58;100118.28;20579222;28;20430;-84
2023/03/26 12:30:36;;;;;;;3.13;1.48;;;;;;;17.35;50.19;100116.03;20595110;28;20047;-84
2023/03/26 12:40:38;;;;;;;3.03;1.10;;;;;;;17.40;49.98;100140.66;20595708;28;20559;-84
2023/03/26 12:51:11;;;;;;;1.98;0.88;;;;;;;17.40;49.92;100142.50;20594347;28;20074;-84
2023/03/26 13:01:37;;;;;;;1.75;0.80;;;;;;;17.38;49.99;100148.03;20576679;28;20141;-84
2023/03/26 13:11:47;;;;;;;3.28;1.00;;;;;;;17.38;49.82;100148.03;20564857;28;20046;-84
2023/03/26 13:22:04;;;;;;;3.17;1.20;;;;;;;17.38;49.69;100152.56;20572617;28;20047;-84
2023/03/26 13:32:16;;;;;;;2.05;0.90;;;;;;;17.37;49.34;100156.25;20568863;28;20047;-84
2023/03/26 13:42:54;;;;;;;2.70;1.10;;;;;;;17.34;49.34;100164.63;20564114;28;20046;-85
2023/03/26 13:53:13;;;;;;;2.70;1.00;;;;;;;17.34;48.95;100170.03;20537850;28;20653;-84
2023/03/26 14:03:28;;;;;;;1.67;1.02;;;;;;;17.35;48.81;100177.09;20528064;28;20119;-86
2023/03/26 14:13:34;;;;;;;4.47;1.38;;;;;;;17.35;48.86;100196.75;20554448;28;20050;-89
2023/03/26 14:24:07;;;;;;;2.75;1.08;;;;;;;17.34;48.70;100199.63;20532260;28;20038;-92
2023/03/26 14:34:46;;;;;;;3.15;1.30;;;;;;;17.34;48.46;100205.00;20541004;28;20624;-87
2023/03/26 14:45:03;;;;;;;1.92;0.70;;;;;;;17.34;48.34;100199.63;20542370;28;20510;-90
2023/03/26 14:55:15;;;;;;;3.28;1.10;;;;;;;17.34;48.11;100218.44;20546729;28;20575;-87
2023/03/26 15:05:32;;;;;;;4.30;1.10;;;;;;;17.33;48.15;100231.03;20541343;28;20049;-86
2023/03/26 15:15:40;;;;;;;4.05;1.23;;;;;;;17.32;47.93;100244.66;20537279;28;20496;-83
2023/03/26 15:26:11;;;;;;;2.88;0.95;;;;;;;17.28;47.67;100254.03;20548061;28;20134;-87
2023/03/26 15:36:27;;;;;;;2.75;1.10;;;;;;;17.28;47.67;100262.09;20556665;28;20035;-86
2023/03/26 15:46:57;;;;;;;2.30;0.90;;;;;;;17.30;47.46;100273.53;20566453;28;20047;-87
2023/03/26 15:57:27;;;;;;;1.95;0.60;;;;;;;17.28;47.50;100297.06;20549045;28;20058;-86
2023/03/26 16:07:57;;;;;;;3.60;1.00;;;;;;;17.29;47.50;100320.28;20560247;28;20046;-86
2023/03/26 16:18:29;;;;;;;1.88;0.70;;;;;;;17.29;47.10;100318.41;20547453;28;20047;-87
2023/03/26 16:28:36;;;;;;;1.88;0.80;;;;;;;17.28;47.12;100334.72;20585385;28;20376;-87
2023/03/26 16:39:03;;;;;;;4.05;1.10;;;;;;;17.19;46.94;100337.28;20556920;28;20058;-84
2023/03/26 16:50:01;;;;;;;3.72;0.98;;;;;;;17.27;46.83;100376.06;20532711;28;20059;-86
2023/03/26 17:00:15;;;;;;;3.15;1.30;;;;;;;17.27;46.86;100402.97;20499652;28;20047;-95
2023/03/26 17:10:38;;;;;;;3.95;1.05;;;;;;;17.25;46.73;100416.56;20583163;28;20089;-87
2023/03/26 17:21:03;;;;;;;2.28;0.93;;;;;;;17.24;46.75;100439.94;20579841;28;20050;-86
2023/03/26 17:31:25;;;;;;;3.78;0.90;;;;;;;17.22;46.66;100449.97;20569376;28;20050;-86
2023/03/26 17:41:48;;;;;;;2.15;0.90;;;;;;;17.21;46.88;100469.78;20584860;28;20482;-93
2023/03/26 17:52:14;;;;;;;3.10;1.05;;;;;;;17.19;46.63;100487.06;20579245;28;20046;-91
2023/03/26 18:02:20;;;;;;;2.88;0.90;;;;;;;17.19;46.70;100498.66;21027093;22;20051;-93
2023/03/26 18:12:43;;;;;;;2.97;0.85;;;;;;;17.16;46.64;100522.31;20948336;28;20063;-94
2023/03/26 18:22:45;;;;;;;2.78;1.10;;;;;;;17.16;46.61;100541.16;20937787;28;20048;-91
2023/03/26 18:33:03;;;;;;;3.55;0.90;;;;;;;17.15;46.43;100561.81;20911617;28;20049;-94
2023/03/26 18:43:14;;;;;;;4.65;1.13;;;;;;;17.15;46.46;100580.63;20925278;28;20702;-88
2023/03/26 19:05:26;;;;;;;2.80;1.02;;;;;;;17.13;46.13;100609.50;20740825;28;20046;-84
2023/03/26 19:15:30;;;;;;;1.80;0.80;;;;;;;17.12;46.16;100613.19;20749506;28;20548;-82
2023/03/26 19:25:41;;;;;;;2.22;0.82;;;;;;;17.04;45.90;100624.66;20729342;28;20526;-84
2023/03/26 19:35:56;;;;;;;3.25;0.98;;;;;;;17.12;45.87;100650.84;20792541;28;20049;-84
2023/03/26 19:45:59;;;;;;;2.28;0.90;;;;;;;17.12;46.00;100648.16;20799467;28;20115;-84
2023/03/26 19:56:06;;;;;;;2.70;0.73;;;;;;;17.12;46.12;100663.47;20816103;28;20478;-84
2023/03/26 20:06:12;;;;;;;3.80;0.98;;;;;;;17.04;46.05;100659.63;20818364;28;20061;-84
2023/03/26 20:16:21;;;;;;;2.83;1.00;;;;;;;17.16;46.00;100694.47;20799991;28;20047;-84
2023/03/26 20:26:24;;;;;;;2.40;0.95;;;;;;;17.19;45.76;100702.28;20827796;28;20066;-84
2023/03/26 20:36:28;;;;;;;2.08;0.80;;;;;;;17.06;45.68;100691.75;20830444;28;20057;-84
2023/03/26 20:46:35;;;;;;;2.55;0.88;;;;;;;17.27;45.75;100725.81;20830365;28;20049;-84
2023/03/26 20:56:40;;;;;;;2.13;0.70;;;;;;;17.33;45.58;100746.78;20828471;28;20501;-84
2023/03/26 21:06:42;;;;;;;2.42;0.88;;;;;;;17.37;45.41;100748.22;20829467;28;20072;-84
2023/03/26 21:16:44;;;;;;;1.90;0.80;;;;;;;17.43;45.33;100768.34;20831072;28;20052;-83
2023/03/26 21:26:53;;;;;;;1.90;0.98;;;;;;;17.45;45.04;100772.59;20814436;28;20094;-84
2023/03/26 21:37:02;;;;;;;2.17;0.77;;;;;;;17.52;44.88;100779.13;20793495;28;20132;-84
2023/03/26 21:47:36;;;;;;;1.77;0.80;;;;;;;17.57;44.71;100802.97;20758296;28;20056;-84
2023/03/26 21:57:43;;;;;;;2.78;1.08;;;;;;;17.62;44.47;100826.75;20828551;28;20060;-84
2023/03/26 22:07:51;;;;;;;2.72;1.10;;;;;;;17.67;44.44;100844.22;20814890;28;20054;-84
2023/03/26 22:17:54;;;;;;;2.70;1.00;;;;;;;17.72;44.42;100854.59;20828333;28;20061;-84
2023/03/26 22:27:56;;;;;;;1.88;0.90;;;;;;;17.77;44.28;100865.81;20804902;28;20046;-84
2023/03/26 22:37:59;;;;;;;1.27;0.70;;;;;;;17.78;44.29;100864.81;20821883;28;20065;-84
2023/03/26 22:48:02;;;;;;;2.20;0.95;;;;;;;17.85;44.17;100881.25;20816588;28;20051;-84
2023/03/26 22:58:05;;;;;;;2.90;1.10;;;;;;;17.76;44.09;100876.69;20822408;28;20056;-84
2023/03/26 23:08:07;;;;;;;2.38;1.10;;;;;;;17.94;44.00;100917.31;20814437;28;20398;-84
2023/03/26 23:18:09;;;;;;;0.95;0.60;;;;;;;17.98;43.77;100940.28;20822468;28;20494;-83
2023/03/26 23:28:11;;;;;;;2.00;0.80;;;;;;;18.02;43.73;100951.69;20821720;28;20124;-84
2023/03/26 23:38:12;;;;;;;1.42;0.73;;;;;;;18.00;43.74;100962.53;20800838;28;20103;-84
2023/03/26 23:48:21;;;;;;;2.15;0.85;;;;;;;18.04;43.55;100971.25;20837371;28;20045;-84
2023/03/26 23:58:26;;;;;;;2.20;0.80;;;;;;;18.10;43.50;100989.56;20825448;28;20053;-84
